Time;durP1;ratioP1;P1;durP2;ratioP2;P2;SDS_P1;SDS_P2;PMS_P1;PMS_P2;Temp;Humidity;BMP_temperature;BMP_pressure;BME280_temperature;BME280_humidity;BME280_pressure;Samples;Min_cycle;Max_cycle;Signal;HPM_P1;HPM_P2
2023/02/01 00:00:36;;;;;;;;;10.00;9.25;;;;;10.49;71.17;102140.75;2071284;27;46265;-65
2023/02/01 00:01:37;;;;;;;;;8.67;7.67;;;;;10.49;71.18;102140.75;2068817;27;46636;-65
2023/02/01 00:02:40;;;;;;;;;9.25;7.75;;;;;10.48;71.12;102140.75;2072662;27;45446;-65
2023/02/01 00:03:40;;;;;;;;;9.60;9.60;;;;;10.45;70.84;102143.41;2071345;27;46481;-65
2023/02/01 00:04:41;;;;;;;;;9.75;8.75;;;;;10.44;71.37;102141.66;2073375;28;46265;-64
2023/02/01 00:05:41;;;;;;;;;9.00;8.50;;;;;10.41;71.35;102142.50;2071556;27;46399;-67
2023/02/01 00:06:41;;;;;;;;;12.75;10.00;;;;;10.41;71.60;102150.47;2073785;27;46716;-64
2023/02/01 00:07:42;;;;;;;;;12.75;9.50;;;;;10.42;71.48;102140.75;2062554;28;45613;-65
2023/02/01 00:08:42;;;;;;;;;8.25;8.25;;;;;10.42;71.47;102148.72;2095779;27;46203;-64
2023/02/01 00:09:42;;;;;;;;;12.75;8.75;;;;;10.42;71.56;102146.97;2100785;28;45558;-64
2023/02/01 00:10:43;;;;;;;;;8.50;8.00;;;;;10.42;71.31;102146.97;2102077;28;46641;-65
2023/02/01 00:11:43;;;;;;;;;9.25;9.00;;;;;10.43;71.72;102153.16;2102897;28;46950;-65
2023/02/01 00:12:44;;;;;;;;;8.25;8.25;;;;;10.44;71.67;102152.25;2103916;28;46886;-65
2023/02/01 00:13:44;;;;;;;;;9.75;8.50;;;;;10.43;71.71;102150.50;2102459;28;46803;-66
2023/02/01 00:14:46;;;;;;;;;9.25;9.25;;;;;10.44;71.55;102152.25;2102757;28;46280;-66
2023/02/01 00:15:46;;;;;;;;;9.40;9.40;;;;;10.43;71.44;102139.88;2103808;28;46132;-64
2023/02/01 00:16:46;;;;;;;;;10.25;8.75;;;;;10.42;71.46;102136.34;2102840;28;45156;-67
2023/02/01 00:17:47;;;;;;;;;10.25;10.25;;;;;10.42;71.57;102138.09;2103898;28;46423;-66
2023/02/01 00:18:49;;;;;;;;;9.25;9.25;;;;;10.42;71.38;102135.44;2102364;28;46494;-66
2023/02/01 00:19:50;;;;;;;;;10.80;9.60;;;;;10.41;71.49;102138.97;2099455;28;46965;-66
2023/02/01 00:20:51;;;;;;;;;13.00;10.50;;;;;10.41;71.80;102134.53;2103647;28;46845;-64
2023/02/01 00:21:51;;;;;;;;;10.00;9.00;;;;;10.42;71.67;102131.03;2102646;28;46713;-66
2023/02/01 00:22:51;;;;;;;;;9.50;9.00;;;;;10.42;71.47;102130.16;2102811;28;45186;-64
2023/02/01 00:23:52;;;;;;;;;11.33;9.33;;;;;10.43;71.57;102123.94;2103654;28;46338;-65
2023/02/01 00:24:52;;;;;;;;;12.50;8.50;;;;;10.41;71.47;102123.91;2102490;28;46137;-66
2023/02/01 00:25:52;;;;;;;;;7.00;7.00;;;;;10.40;71.50;102135.41;2091149;28;46355;-65
2023/02/01 00:26:53;;;;;;;;;9.00;9.00;;;;;10.38;71.26;102121.28;2086942;28;45991;-66
2023/02/01 00:27:53;;;;;;;;;9.75;9.75;;;;;10.38;71.51;102129.22;2095445;28;46654;-65
2023/02/01 00:28:53;;;;;;;;;10.75;10.75;;;;;10.37;71.26;102129.22;2095368;28;46595;-64
2023/02/01 00:29:55;;;;;;;;;9.00;9.00;;;;;10.38;71.53;102120.38;2086203;28;46678;-64
2023/02/01 00:31:03;;;;;;;;;6.20;6.20;;;;;10.37;71.28;102119.50;2086970;28;46302;-65
2023/02/01 00:32:03;;;;;;;;;8.00;8.00;;;;;10.37;71.61;102119.50;2078727;28;46350;-64
2023/02/01 00:33:04;;;;;;;;;9.25;7.75;;;;;10.37;71.13;102110.66;2086600;28;46274;-64
2023/02/01 00:34:05;;;;;;;;;7.00;7.00;;;;;10.35;71.08;102112.44;2089593;28;46825;-64
2023/02/01 00:35:08;;;;;;;;;6.75;6.75;;;;;10.35;71.04;102120.41;2095400;28;45987;-65
2023/02/01 00:36:09;;;;;;;;;8.80;7.80;;;;;10.34;71.26;102116.84;2095511;28;46384;-64
2023/02/01 00:37:09;;;;;;;;;7.20;6.80;;;;;10.32;71.21;102116.84;2096071;28;46649;-64
2023/02/01 00:38:10;;;;;;;;;6.25;6.25;;;;;10.30;71.29;102113.31;2087524;28;45390;-64
2023/02/01 00:39:11;;;;;;;;;7.75;7.75;;;;;10.29;71.27;102107.97;2073966;28;45847;-65
2023/02/01 00:40:11;;;;;;;;;8.00;7.80;;;;;10.28;71.31;102115.06;2071598;28;46829;-66
2023/02/01 00:41:15;;;;;;;;;12.00;9.50;;;;;10.28;71.31;102116.81;2070393;27;46181;-65
2023/02/01 00:42:16;;;;;;;;;10.00;8.40;;;;;10.27;71.16;102113.28;2061248;28;46499;-65
2023/02/01 00:43:16;;;;;;;;;8.00;8.00;;;;;10.26;71.47;102118.59;2061697;28;45540;-65
2023/02/01 00:44:16;;;;;;;;;8.25;7.00;;;;;10.25;71.05;102127.44;2069372;27;46271;-67
2023/02/01 00:45:17;;;;;;;;;8.00;8.00;;;;;10.25;71.41;102130.09;2071613;27;46385;-66
2023/02/01 00:46:19;;;;;;;;;7.00;6.25;;;;;10.22;71.14;102123.03;2078535;27;46005;-65
2023/02/01 00:47:19;;;;;;;;;8.20;7.80;;;;;10.21;71.18;102121.25;2073584;27;46360;-65
2023/02/01 00:48:20;;;;;;;;;7.75;7.75;;;;;10.20;71.18;102119.44;2070131;28;46317;-66
2023/02/01 00:49:20;;;;;;;;;6.00;6.00;;;;;10.19;71.28;102128.28;2061826;28;46245;-66
2023/02/01 00:50:20;;;;;;;;;9.25;7.25;;;;;10.20;71.30;102121.22;2061158;28;46194;-66
2023/02/01 00:51:24;;;;;;;;;7.25;7.00;;;;;10.21;71.17;102118.59;2070313;28;46423;-65
2023/02/01 00:52:25;;;;;;;;;8.60;8.60;;;;;10.20;71.16;102119.44;2055048;28;46306;-67
2023/02/01 00:53:25;;;;;;;;;7.00;6.75;;;;;10.20;71.36;102119.44;2055125;28;46592;-66
2023/02/01 00:54:25;;;;;;;;;8.00;8.00;;;;;10.21;71.02;102117.69;2071418;28;46711;-66
2023/02/01 00:55:26;;;;;;;;;10.25;7.00;;;;;10.22;70.91;102124.78;2071249;28;46491;-65
2023/02/01 00:56:29;;;;;;;;;8.00;7.50;;;;;10.22;71.03;102127.44;2071670;28;46327;-64
2023/02/01 00:57:30;;;;;;;;;7.80;7.80;;;;;10.21;71.12;102131.88;2071579;27;46814;-65
2023/02/01 00:58:31;;;;;;;;;5.20;5.20;;;;;10.23;71.07;102129.22;2071134;28;46092;-65
2023/02/01 00:59:31;;;;;;;;;7.80;6.20;;;;;10.23;70.94;102129.22;2071717;28;46450;-65
2023/02/01 01:00:32;;;;;;;;;9.00;7.25;;;;;10.24;70.77;102129.22;2062677;28;48027;-64
2023/02/01 01:01:33;;;;;;;;;6.40;6.20;;;;;10.25;70.85;102133.63;2062541;28;46855;-64
2023/02/01 01:02:33;;;;;;;;;6.50;6.50;;;;;10.24;70.69;102134.50;2067860;27;46459;-67
2023/02/01 01:03:37;;;;;;;;;9.25;8.50;;;;;10.26;70.80;102131.88;2068268;28;46318;-65
2023/02/01 01:04:37;;;;;;;;;7.00;7.00;;;;;10.24;70.65;102139.81;2071342;28;46534;-65
2023/02/01 01:05:37;;;;;;;;;10.75;8.00;;;;;10.25;70.95;102132.75;2071750;27;45971;-64
2023/02/01 01:06:38;;;;;;;;;6.50;6.50;;;;;10.23;71.00;102127.44;2066325;28;46522;-65
2023/02/01 01:07:38;;;;;;;;;9.50;7.75;;;;;10.25;70.46;102138.06;2070417;28;47293;-65
2023/02/01 01:08:39;;;;;;;;;8.00;8.00;;;;;10.23;70.65;102135.41;2079601;28;46791;-64
2023/02/01 01:09:40;;;;;;;;;6.20;6.20;;;;;10.24;70.57;102137.16;2077326;28;46240;-64
2023/02/01 01:10:40;;;;;;;;;8.25;8.25;;;;;10.25;70.75;102149.56;2071521;27;46740;-64
2023/02/01 01:11:41;;;;;;;;;5.50;5.50;;;;;10.26;70.58;102143.34;2071060;27;46781;-63
2023/02/01 01:12:41;;;;;;;;;11.00;8.50;;;;;10.28;70.31;102138.06;2071253;27;46679;-67
2023/02/01 01:13:42;;;;;;;;;7.75;7.75;;;;;10.28;70.46;102136.28;2054310;28;46695;-65
2023/02/01 01:14:42;;;;;;;;;7.25;6.50;;;;;10.29;70.38;102137.16;2058366;28;44924;-65
2023/02/01 01:15:42;;;;;;;;;9.25;7.25;;;;;10.29;70.05;102137.16;2079385;28;46360;-66
2023/02/01 01:16:43;;;;;;;;;10.00;7.00;;;;;10.31;70.01;102144.28;2072138;27;46106;-65
2023/02/01 01:17:43;;;;;;;;;6.75;6.75;;;;;10.31;70.09;102133.66;2069492;27;46267;-64
2023/02/01 01:18:44;;;;;;;;;7.50;7.00;;;;;10.31;70.11;102141.63;2063508;28;45865;-64
2023/02/01 01:19:45;;;;;;;;;10.60;8.60;;;;;10.32;69.90;102134.53;2066531;27;46905;-64
2023/02/01 01:20:45;;;;;;;;;8.50;7.25;;;;;10.33;70.01;102138.97;2070730;28;45945;-65
2023/02/01 01:21:45;;;;;;;;;5.00;5.00;;;;;10.34;70.00;102139.84;2062633;28;45935;-64
2023/02/01 01:22:46;;;;;;;;;6.00;4.75;;;;;10.35;69.96;102137.19;2062260;28;46299;-64
2023/02/01 01:23:47;;;;;;;;;8.00;8.00;;;;;10.36;69.66;102146.03;2071103;27;46386;-65
2023/02/01 01:24:47;;;;;;;;;6.20;6.20;;;;;10.35;69.79;102137.19;2071200;28;46562;-65
2023/02/01 01:25:47;;;;;;;;;6.75;6.75;;;;;10.36;69.47;102144.28;2071243;27;46320;-65
2023/02/01 01:26:48;;;;;;;;;6.25;6.25;;;;;10.37;69.21;102139.84;2062160;28;46425;-63
2023/02/01 01:27:48;;;;;;;;;5.67;5.00;;;;;10.38;68.86;102144.28;2062599;28;46340;-64
2023/02/01 01:28:49;;;;;;;;;7.67;7.00;;;;;10.37;68.95;102147.81;2078047;28;46458;-67
2023/02/01 01:29:50;;;;;;;;;6.00;5.00;;;;;10.38;68.68;102146.94;2083244;28;46826;-66
2023/02/01 01:30:50;;;;;;;;;3.67;3.67;;;;;10.38;69.00;102146.94;2070774;28;46877;-66
2023/02/01 01:31:50;;;;;;;;;7.00;7.00;;;;;10.38;68.59;102144.28;2063120;28;46746;-65
2023/02/01 01:32:51;;;;;;;;;4.00;4.00;;;;;10.38;68.53;102144.28;2062808;28;46558;-65
2023/02/01 01:33:55;;;;;;;;;8.50;5.75;;;;;10.38;68.60;102146.94;2063276;28;45924;-65
2023/02/01 01:34:55;;;;;;;;;6.00;5.00;;;;;10.36;68.74;102146.94;2066552;28;46717;-64
2023/02/01 01:35:55;;;;;;;;;11.33;6.33;;;;;10.36;68.82;102144.28;2071081;28;46189;-66
2023/02/01 01:36:56;;;;;;;;;6.00;6.00;;;;;10.35;68.60;102147.81;2064295;28;46549;-65
2023/02/01 01:37:57;;;;;;;;;6.67;5.00;;;;;10.34;68.78;102146.03;2076137;27;46250;-65
2023/02/01 01:38:58;;;;;;;;;5.00;5.00;;;;;10.33;68.81;102146.94;2071375;28;45830;-65
2023/02/01 01:39:58;;;;;;;;;7.33;6.33;;;;;10.33;68.66;102149.59;2066960;28;46285;-65
2023/02/01 01:40:58;;;;;;;;;5.67;5.67;;;;;10.32;68.88;102138.09;2062942;28;46190;-66
2023/02/01 01:41:59;;;;;;;;;6.33;6.33;;;;;10.33;68.87;102144.28;2062843;28;46355;-67
2023/02/01 01:42:59;;;;;;;;;7.00;7.00;;;;;10.32;69.17;102145.16;2062861;28;46837;-65
2023/02/01 01:43:59;;;;;;;;;6.00;5.33;;;;;10.30;69.02;102150.47;2062955;28;46267;-66
2023/02/01 01:45:21;;;;;;;;;6.00;6.00;;;;;10.30;68.83;102145.16;2062858;28;46664;-65
2023/02/01 01:46:37;;;;;;;;;7.25;6.75;;;;;10.29;68.86;102143.41;2063104;28;46400;-64
2023/02/01 01:47:44;;;;;;;;;10.00;7.25;;;;;10.29;68.85;102143.41;2062591;28;46744;-65
2023/02/01 01:48:47;;;;;;;;;8.75;8.75;;;;;10.29;68.84;102148.69;2063123;28;46670;-65
2023/02/01 01:49:48;;;;;;;;;5.75;4.50;;;;;10.28;68.75;102146.91;2059043;28;46578;-65
2023/02/01 01:51:04;;;;;;;;;6.00;5.33;;;;;10.28;68.78;102153.97;2062355;28;46395;-64
2023/02/01 01:52:06;;;;;;;;;4.00;4.00;;;;;10.27;68.74;102152.19;2062961;28;46794;-65
2023/02/01 01:53:10;;;;;;;;;6.00;6.00;;;;;10.26;68.80;102150.44;2068254;27;46718;-65
2023/02/01 01:54:27;;;;;;;;;5.25;5.25;;;;;10.25;68.56;102141.59;2071030;27;47025;-65
2023/02/01 01:55:32;;;;;;;;;6.25;6.00;;;;;10.26;68.26;102146.00;2070920;28;46709;-63
2023/02/01 01:56:34;;;;;;;;;6.50;6.50;;;;;10.26;68.41;102150.44;2071079;27;46337;-66
2023/02/01 01:57:39;;;;;;;;;4.25;4.25;;;;;10.27;68.07;102154.84;2070995;27;46866;-64
2023/02/01 01:58:40;;;;;;;;;6.25;6.00;;;;;10.28;68.20;102157.50;2070968;27;46652;-64
2023/02/01 01:59:46;;;;;;;;;5.75;5.50;;;;;10.27;68.19;102146.91;2068015;27;46326;-65
2023/02/01 02:00:47;;;;;;;;;6.00;6.00;;;;;10.26;68.16;102153.09;2064583;28;46331;-65
2023/02/01 02:01:48;;;;;;;;;5.00;4.25;;;;;10.27;68.04;102161.03;2062704;28;46245;-64
2023/02/01 02:02:56;;;;;;;;;8.33;6.00;;;;;10.28;67.74;102159.28;2062949;28;46277;-64
2023/02/01 02:03:57;;;;;;;;;7.75;5.00;;;;;10.29;67.67;102169.00;2064417;27;46784;-65
2023/02/01 02:04:58;;;;;;;;;4.25;4.25;;;;;10.30;67.45;102179.66;2070555;28;45398;-65
2023/02/01 02:06:00;;;;;;;;;4.67;4.67;;;;;10.30;67.26;102169.03;2070785;28;46735;-65
2023/02/01 02:07:05;;;;;;;;;4.25;4.00;;;;;10.31;67.27;102173.47;2070682;27;46645;-64
2023/02/01 02:08:05;;;;;;;;;5.67;5.67;;;;;10.32;67.52;102169.94;2065366;28;46552;-65
2023/02/01 02:09:06;;;;;;;;;7.00;6.00;;;;;10.33;67.08;102165.50;2067217;28;46991;-63
2023/02/01 02:10:12;;;;;;;;;6.33;4.00;;;;;10.33;67.09;102162.84;2071040;27;46775;-64
2023/02/01 02:11:16;;;;;;;;;6.00;6.00;;;;;10.34;67.07;102163.72;2062490;28;46366;-64
2023/02/01 02:12:17;;;;;;;;;6.67;5.33;;;;;10.34;66.95;102153.13;2067296;27;46275;-64
2023/02/01 02:13:18;;;;;;;;;5.00;4.00;;;;;10.34;67.00;102159.31;2064444;28;46488;-65
2023/02/01 02:14:22;;;;;;;;;5.67;5.67;;;;;10.35;66.83;102149.59;2069953;27;46225;-64
2023/02/01 02:15:23;;;;;;;;;4.50;4.50;;;;;10.35;66.36;102149.59;2071054;28;46380;-64
2023/02/01 02:16:29;;;;;;;;;4.00;4.00;;;;;10.35;66.58;102157.53;2070974;27;46292;-64
2023/02/01 02:17:52;;;;;;;;;6.00;6.00;;;;;10.34;66.47;102154.00;2070902;27;46178;-64
2023/02/01 02:19:29;;;;;;;;;5.50;4.50;;;;;10.34;66.23;102153.13;2070681;28;46566;-63
2023/02/01 02:20:35;;;;;;;;;5.00;5.00;;;;;10.32;66.12;102148.69;2071260;27;45584;-64
2023/02/01 02:21:47;;;;;;;;;4.50;4.50;;;;;10.33;65.88;102144.28;2070697;27;46785;-64
2023/02/01 02:23:06;;;;;;;;;6.50;6.00;;;;;10.34;65.90;102143.38;2071299;27;45839;-65
2023/02/01 02:24:15;;;;;;;;;7.25;6.25;;;;;10.36;65.64;102135.44;2071191;28;46003;-64
2023/02/01 02:25:16;;;;;;;;;4.50;4.50;;;;;10.36;65.46;102146.03;2070713;27;46684;-65
2023/02/01 02:26:32;;;;;;;;;5.00;5.00;;;;;10.35;65.59;102139.84;2071043;28;46861;-64
2023/02/01 02:27:59;;;;;;;;;3.00;3.00;;;;;10.35;65.17;102147.81;2066448;27;46434;-65
2023/02/01 02:29:20;;;;;;;;;7.00;5.00;;;;;10.36;65.13;102152.22;2062840;28;46781;-64
2023/02/01 02:30:39;;;;;;;;;6.00;5.75;;;;;10.37;65.06;102155.78;2068787;28;46969;-63
2023/02/01 02:31:45;;;;;;;;;5.00;3.75;;;;;10.37;64.78;102154.00;2070972;28;46379;-63
2023/02/01 02:33:18;;;;;;;;;5.75;5.75;;;;;10.38;64.70;102142.50;2070941;27;46446;-62
2023/02/01 02:34:53;;;;;;;;;4.25;4.25;;;;;10.38;64.65;102142.50;2070891;27;46607;-64
2023/02/01 02:36:07;;;;;;;;;5.75;4.25;;;;;10.39;64.13;102135.44;2087514;28;46890;-64
2023/02/01 02:37:19;;;;;;;;;7.25;4.25;;;;;10.40;64.12;102139.84;2087483;28;46336;-65
2023/02/01 02:38:53;;;;;;;;;5.75;4.00;;;;;10.40;63.96;102137.19;2087403;28;46634;-65
2023/02/01 02:40:08;;;;;;;;;2.50;2.50;;;;;10.40;64.12;102137.19;2087865;28;46704;-64
2023/02/01 02:47:23;;;;;;;;;4.00;2.50;;;;;10.40;63.79;102137.19;2085603;28;46754;-64
2023/02/01 02:47:23;;;;;;;;;2.75;2.25;;;;;10.36;62.80;102115.09;2087874;28;46381;-63
2023/02/01 02:48:38;;;;;;;;;4.00;2.75;;;;;10.37;62.97;102123.94;2087584;28;46387;-65
2023/02/01 02:55:36;;;;;;;;;7.25;5.00;;;;;10.40;63.20;102146.03;2088103;28;45766;-65
2023/02/01 03:04:40;;;;;;;;;5.00;5.00;;;;;10.42;62.63;102144.31;2079147;28;46545;-65
2023/02/01 03:05:44;;;;;;;;;4.00;3.00;;;;;10.43;62.38;102150.50;2082672;28;46654;-64
2023/02/01 03:06:45;;;;;;;;;8.00;3.00;;;;;10.43;62.31;102148.72;2087709;28;46430;-65
2023/02/01 03:08:25;;;;;;;;;4.25;3.75;;;;;10.43;62.18;102146.06;2087410;28;46733;-64
2023/02/01 03:09:36;;;;;;;;;7.25;4.00;;;;;10.43;62.21;102150.50;2079449;28;45770;-65
2023/02/01 03:11:06;;;;;;;;;5.75;4.75;;;;;10.43;62.22;102158.44;2079294;28;46900;-64
2023/02/01 03:13:38;;;;;;;;;2.25;2.25;;;;;10.42;62.14;102143.41;2061262;28;46764;-65
2023/02/01 03:14:45;;;;;;;;;5.50;4.00;;;;;10.39;62.49;102138.97;2045853;28;45651;-64
2023/02/01 03:15:53;;;;;;;;;2.00;2.00;;;;;10.38;62.27;102149.56;2045655;28;46744;-63
2023/02/01 03:17:05;;;;;;;;;3.50;3.25;;;;;10.37;62.08;102155.78;2045761;28;46723;-63
2023/02/01 03:18:14;;;;;;;;;3.50;3.25;;;;;10.35;62.62;102153.13;2045590;28;47058;-64
2023/02/01 03:19:33;;;;;;;;;2.50;2.00;;;;;10.34;62.23;102154.00;2045303;28;46723;-64
2023/02/01 03:20:34;;;;;;;;;2.00;2.00;;;;;10.32;62.46;102161.97;2045311;28;46581;-62
2023/02/01 03:21:41;;;;;;;;;3.00;2.25;;;;;10.32;62.03;102164.63;2037450;28;46199;-62
2023/02/01 03:22:45;;;;;;;;;4.25;2.00;;;;;10.31;62.44;102159.31;2038306;28;46756;-63
2023/02/01 03:23:49;;;;;;;;;3.50;3.50;;;;;10.32;62.41;102166.38;2045774;28;46023;-63
2023/02/01 03:25:04;;;;;;;;;2.00;2.00;;;;;10.32;62.21;102164.63;2045602;28;46871;-62
2023/02/01 03:26:10;;;;;;;;;6.00;4.75;;;;;10.34;61.98;102167.28;2045612;28;45693;-62
2023/02/01 03:27:18;;;;;;;;;2.00;2.00;;;;;10.36;62.33;102161.97;2045493;28;46932;-63
2023/02/01 03:28:22;;;;;;;;;3.00;3.00;;;;;10.36;62.25;102160.19;2045404;28;46394;-64
2023/02/01 03:29:33;;;;;;;;;5.25;3.50;;;;;10.37;62.19;102164.63;2037564;28;46595;-63
2023/02/01 03:30:41;;;;;;;;;4.75;3.75;;;;;10.36;62.10;102149.59;2037166;28;46323;-62
2023/02/01 03:31:42;;;;;;;;;2.50;2.50;;;;;10.37;61.96;102150.47;2041546;28;46497;-64
2023/02/01 03:32:58;;;;;;;;;3.33;2.00;;;;;10.37;62.32;102148.69;2045903;28;46789;-63
2023/02/01 03:33:59;;;;;;;;;6.50;4.75;;;;;10.37;61.86;102146.03;2045036;28;46440;-64
2023/02/01 03:35:00;;;;;;;;;5.67;3.67;;;;;10.38;61.82;102157.53;2045661;28;46857;-63
2023/02/01 03:36:14;;;;;;;;;4.00;4.00;;;;;10.38;62.03;102147.81;2045650;28;46702;-63
2023/02/01 03:37:27;;;;;;;;;0.75;0.75;;;;;10.39;61.99;102146.94;2040376;28;46862;-64
2023/02/01 03:38:32;;;;;;;;;3.25;2.25;;;;;10.38;61.90;102150.47;2046722;28;46301;-63
2023/02/01 03:39:47;;;;;;;;;4.25;4.25;;;;;10.37;61.84;102153.13;2045276;28;45954;-63
2023/02/01 03:40:53;;;;;;;;;4.50;2.50;;;;;10.36;61.43;102154.88;2045754;28;46530;-64
2023/02/01 03:41:57;;;;;;;;;4.00;4.00;;;;;10.35;62.05;102154.88;2045873;28;46524;-64
2023/02/01 03:43:01;;;;;;;;;3.75;3.00;;;;;10.34;61.92;102161.97;2045532;28;46205;-65
2023/02/01 03:44:14;;;;;;;;;4.25;3.00;;;;;10.33;61.32;102165.50;2054546;28;45204;-64
2023/02/01 03:45:34;;;;;;;;;6.00;4.25;;;;;10.32;61.58;102164.63;2045910;28;46362;-65
2023/02/01 03:46:47;;;;;;;;;4.25;4.25;;;;;10.31;61.84;102160.19;2045607;28;46004;-65
2023/02/01 03:47:53;;;;;;;;;3.75;3.75;;;;;10.33;62.10;102157.53;2058117;28;47167;-65
2023/02/01 03:48:54;;;;;;;;;3.00;3.00;;;;;10.34;62.08;102161.97;2062075;28;45151;-65
2023/02/01 03:49:59;;;;;;;;;3.50;3.00;;;;;10.33;61.74;102162.84;2054182;28;46581;-65
2023/02/01 03:51:04;;;;;;;;;5.25;3.25;;;;;10.34;61.58;102161.06;2054379;28;46303;-65
2023/02/01 03:52:09;;;;;;;;;4.00;4.00;;;;;10.34;61.66;102161.97;2054514;28;46673;-64
2023/02/01 03:53:16;;;;;;;;;5.00;3.75;;;;;10.34;61.69;102161.97;2069985;28;46512;-64
2023/02/01 03:54:18;;;;;;;;;5.00;3.25;;;;;10.32;61.59;102164.63;2068322;27;46804;-65
2023/02/01 03:55:23;;;;;;;;;4.50;4.25;;;;;10.31;61.87;102154.88;2054439;28;46547;-64
2023/02/01 03:56:27;;;;;;;;;6.00;5.00;;;;;10.29;61.80;102156.66;2054348;28;46404;-66
2023/02/01 03:57:33;;;;;;;;;2.75;2.00;;;;;10.29;61.63;102158.41;2054521;28;45047;-64
2023/02/01 03:58:33;;;;;;;;;2.25;2.25;;;;;10.28;61.40;102162.81;2054627;28;46798;-64
2023/02/01 03:59:39;;;;;;;;;4.00;2.00;;;;;10.30;61.59;102155.78;2054564;28;46467;-65
2023/02/01 04:00:39;;;;;;;;;7.25;5.25;;;;;10.31;61.66;102154.88;2057102;28;46586;-64
2023/02/01 04:01:40;;;;;;;;;5.00;5.00;;;;;10.32;61.42;102159.31;2062482;28;46672;-65
2023/02/01 04:02:40;;;;;;;;;3.00;3.00;;;;;10.34;61.67;102169.94;2061020;28;46617;-66
2023/02/01 04:03:41;;;;;;;;;2.00;2.00;;;;;10.35;61.92;102162.84;2061600;28;47293;-65
2023/02/01 04:04:41;;;;;;;;;2.00;2.00;;;;;10.34;61.57;102156.66;2069287;28;46220;-65
2023/02/01 04:05:41;;;;;;;;;4.33;4.00;;;;;10.35;61.71;102161.06;2077610;28;46260;-64
2023/02/01 04:06:42;;;;;;;;;7.33;4.00;;;;;10.36;61.47;102154.88;2054455;28;46450;-65
2023/02/01 04:07:42;;;;;;;;;2.67;2.67;;;;;10.38;61.60;102149.56;2061630;28;46235;-65
2023/02/01 04:08:42;;;;;;;;;4.00;4.00;;;;;10.37;61.05;102151.34;2062683;28;45735;-64
2023/02/01 04:09:43;;;;;;;;;2.67;2.67;;;;;10.37;61.63;102148.69;2062147;28;46648;-65
2023/02/01 04:10:43;;;;;;;;;6.67;5.00;;;;;10.37;61.41;102150.47;2061641;28;45649;-65
2023/02/01 04:11:44;;;;;;;;;4.33;4.33;;;;;10.37;61.29;102148.69;2061615;28;46354;-65
2023/02/01 04:12:44;;;;;;;;;2.67;2.67;;;;;10.38;61.62;102153.13;2062113;28;46622;-65
2023/02/01 04:13:44;;;;;;;;;3.67;2.67;;;;;10.37;61.54;102150.47;2062372;28;46255;-66
2023/02/01 04:14:45;;;;;;;;;6.00;4.00;;;;;10.36;61.35;102149.59;2062173;28;45035;-66
2023/02/01 04:15:49;;;;;;;;;4.67;4.33;;;;;10.36;61.54;102146.03;2061639;28;48243;-66
2023/02/01 04:16:50;;;;;;;;;5.00;3.00;;;;;10.35;61.26;102147.81;2061354;28;46868;-65
2023/02/01 04:17:50;;;;;;;;;4.00;3.33;;;;;10.34;61.22;102143.38;2062264;28;46353;-65
2023/02/01 04:18:50;;;;;;;;;3.67;3.67;;;;;10.35;61.29;102139.84;2062582;28;45788;-66
2023/02/01 04:19:51;;;;;;;;;5.00;3.67;;;;;10.35;61.22;102149.59;2062261;28;46602;-65
2023/02/01 04:20:51;;;;;;;;;5.00;5.00;;;;;10.36;61.22;102154.00;2061669;28;46231;-67
2023/02/01 04:21:51;;;;;;;;;4.67;3.00;;;;;10.34;61.01;102151.34;2061772;28;45952;-65
2023/02/01 04:22:52;;;;;;;;;3.67;3.67;;;;;10.35;61.13;102153.13;2054483;28;46318;-66
2023/02/01 04:23:53;;;;;;;;;3.33;3.33;;;;;10.35;60.94;102158.44;2058725;28;46463;-67
2023/02/01 04:24:53;;;;;;;;;5.25;3.50;;;;;10.34;60.55;102151.34;2062504;28;46234;-66
2023/02/01 04:25:59;;;;;;;;;4.00;3.33;;;;;10.36;60.89;102156.66;2062450;28;46269;-65
2023/02/01 04:26:59;;;;;;;;;4.00;3.00;;;;;10.36;60.71;102146.03;2061983;28;46411;-65
2023/02/01 04:27:59;;;;;;;;;3.00;3.00;;;;;10.37;60.95;102154.00;2060029;28;46237;-64
2023/02/01 04:29:00;;;;;;;;;3.00;3.00;;;;;10.37;60.80;102151.34;2057912;28;45778;-64
2023/02/01 04:30:00;;;;;;;;;5.67;4.33;;;;;10.37;60.77;102156.66;2061717;28;46689;-64
2023/02/01 04:31:01;;;;;;;;;5.00;3.33;;;;;10.37;60.82;102161.97;2062275;28;45965;-65
2023/02/01 04:32:01;;;;;;;;;5.33;4.00;;;;;10.39;60.58;102160.19;2062315;28;46039;-65
2023/02/01 04:33:05;;;;;;;;;3.00;3.00;;;;;10.39;60.33;102156.66;2060990;28;45759;-64
2023/02/01 04:34:05;;;;;;;;;5.25;4.00;;;;;10.38;60.73;102149.56;2054055;28;46711;-64
2023/02/01 04:35:06;;;;;;;;;2.67;2.67;;;;;10.37;60.63;102159.31;2058906;28;46782;-64
2023/02/01 04:36:07;;;;;;;;;3.25;3.25;;;;;10.36;60.38;102168.16;2061484;28;47372;-65
2023/02/01 04:37:07;;;;;;;;;3.33;3.33;;;;;10.35;60.49;102160.19;2055656;28;45235;-66
2023/02/01 04:38:08;;;;;;;;;5.67;5.33;;;;;10.35;60.32;102162.84;2066608;28;46377;-65
2023/02/01 04:39:09;;;;;;;;;5.67;3.00;;;;;10.35;60.33;102157.53;2061997;28;45902;-65
2023/02/01 04:40:10;;;;;;;;;4.25;4.25;;;;;10.34;60.30;102150.47;2061698;28;45985;-64
2023/02/01 04:41:10;;;;;;;;;4.50;3.75;;;;;10.34;60.11;102153.13;2062177;28;46529;-65
2023/02/01 04:42:10;;;;;;;;;2.67;2.67;;;;;10.31;60.20;102144.28;2062362;28;46239;-65
2023/02/01 04:43:11;;;;;;;;;5.33;4.00;;;;;10.30;60.63;102149.59;2062134;28;46030;-65
2023/02/01 04:44:17;;;;;;;;;3.33;3.00;;;;;10.29;60.56;102147.78;2064872;28;45539;-65
2023/02/01 04:45:17;;;;;;;;;3.75;2.75;;;;;10.27;60.28;102158.41;2070669;28;45283;-64
2023/02/01 04:46:17;;;;;;;;;5.00;5.00;;;;;10.27;60.50;102144.25;2086364;28;46713;-66
2023/02/01 04:47:18;;;;;;;;;5.00;3.67;;;;;10.25;60.41;102151.31;2086798;28;46476;-64
2023/02/01 04:48:20;;;;;;;;;4.00;2.33;;;;;10.25;60.55;102156.63;2070305;28;45350;-65
2023/02/01 04:49:21;;;;;;;;;7.75;6.25;;;;;10.24;60.75;102163.69;2070415;27;46589;-65
2023/02/01 04:50:23;;;;;;;;;5.00;3.33;;;;;10.23;60.70;102145.13;2070118;27;46330;-65
2023/02/01 04:51:23;;;;;;;;;3.50;3.50;;;;;10.21;60.53;102153.09;2076944;28;46460;-65
2023/02/01 04:52:24;;;;;;;;;3.33;3.00;;;;;10.21;60.41;102146.88;2077099;28;46724;-65
2023/02/01 04:53:24;;;;;;;;;1.67;1.67;;;;;10.20;60.71;102147.75;2070119;28;46825;-67
2023/02/01 04:54:25;;;;;;;;;4.00;4.00;;;;;10.18;60.70;102152.16;2069739;28;46689;-65
2023/02/01 04:55:25;;;;;;;;;5.00;3.00;;;;;10.17;60.64;102153.06;2069702;28;46354;-65
2023/02/01 04:56:25;;;;;;;;;7.33;3.00;;;;;10.16;60.77;102157.44;2070118;27;46200;-65
2023/02/01 04:57:26;;;;;;;;;3.00;3.00;;;;;10.17;60.69;102163.66;2070587;27;45858;-65
2023/02/01 04:58:26;;;;;;;;;4.67;3.00;;;;;10.16;60.86;102162.75;2061268;28;46305;-65
2023/02/01 04:59:28;;;;;;;;;4.00;4.00;;;;;10.15;60.49;102160.97;2055156;28;46738;-66
2023/02/01 05:00:28;;;;;;;;;5.00;2.25;;;;;10.15;60.98;102170.69;2063739;28;46681;-65
2023/02/01 05:01:29;;;;;;;;;4.00;4.00;;;;;10.12;61.13;102166.28;2061290;28;46154;-65
2023/02/01 05:02:29;;;;;;;;;4.00;3.00;;;;;10.11;61.12;102168.94;2058262;28;46907;-66
2023/02/01 05:03:31;;;;;;;;;4.33;3.33;;;;;10.12;61.35;102173.34;2062247;28;46146;-64
2023/02/01 05:04:31;;;;;;;;;3.00;3.00;;;;;10.10;61.31;102173.34;2062415;28;46079;-65
2023/02/01 05:05:32;;;;;;;;;3.33;2.33;;;;;10.08;61.03;102179.53;2065228;28;46688;-66
2023/02/01 05:06:32;;;;;;;;;5.67;4.00;;;;;10.07;61.31;102172.47;2070246;27;46349;-65
2023/02/01 05:07:34;;;;;;;;;6.33;2.00;;;;;10.06;61.25;102179.53;2070064;28;47071;-65
2023/02/01 05:08:34;;;;;;;;;6.75;5.00;;;;;10.05;61.19;102175.13;2069951;28;46485;-67
2023/02/01 05:09:34;;;;;;;;;2.67;2.67;;;;;10.05;61.17;102171.56;2070639;28;45021;-67
2023/02/01 05:10:34;;;;;;;;;4.67;4.67;;;;;10.04;61.11;102176.00;2070259;28;46217;-66
2023/02/01 05:14:13;;;;;;;;;3.25;3.25;;;;;10.02;61.20;102191.00;2062222;28;47114;-67
2023/02/01 05:15:13;;;;;;;;;3.00;1.00;;;;;10.00;61.42;102176.84;2065722;28;46770;-66
2023/02/01 05:16:14;;;;;;;;;5.00;3.00;;;;;10.01;61.51;102189.22;2070179;28;46192;-64
2023/02/01 05:17:14;;;;;;;;;4.00;3.33;;;;;9.99;61.49;102183.91;2069937;27;46339;-66
2023/02/01 05:18:14;;;;;;;;;6.67;3.00;;;;;9.99;61.55;102181.25;2069844;27;46529;-65
2023/02/01 05:19:15;;;;;;;;;6.67;3.00;;;;;9.99;61.32;102177.72;2061506;28;46679;-64